Terminal Aerodrome Forecast
Issued by NWS

Home | Current Version | Previous Version | Text Only | Print | Product List | Glossary On
Versions: 1 2 3 4 5 6 7 8 9 10 11 12 13 14 15 16 17 18
985
FTUS44 KLZK 211008 AAA
TAFBPK
TAF AMD
KBPK 211008Z 2110/2206 19005KT P6SM SCT035 OVC250 WS020/20045KT
      TEMPO 2110/2113 OVC035
     FM211300 18009G18KT P6SM VCSH BKN015 OVC035
     FM211800 18010G20KT P6SM VCSH BKN040 OVC080 PROB30 2119/2123
      6SM -TSRA OVC040CB=

USA.gov is the U.S. government's official web portal to all federal, state and local government web resources and services.